createdAt,value
2019-03-15T00:01:38.576Z,7.93
2019-03-15T00:04:07.136Z,7.96
2019-03-15T00:06:35.752Z,8.04
2019-03-15T00:09:07.518Z,8.13
2019-03-15T00:11:36.059Z,8.25
2019-03-15T00:14:04.837Z,8.39
2019-03-15T00:16:33.400Z,8.47
2019-03-15T00:19:02.051Z,8.32
2019-03-15T00:21:30.758Z,8.14
2019-03-15T00:23:59.379Z,8.11
2019-03-15T00:26:27.952Z,7.99
2019-03-15T00:28:56.502Z,7.87
2019-03-15T00:31:25.023Z,7.82
2019-03-15T00:33:53.633Z,7.85
2019-03-15T00:36:22.218Z,7.95
2019-03-15T00:38:51.047Z,8.09
2019-03-15T00:41:19.664Z,8.10
2019-03-15T00:43:49.568Z,8.11
2019-03-15T00:46:18.332Z,8.16
2019-03-15T00:48:46.881Z,8.29
2019-03-15T00:51:15.465Z,8.43
2019-03-15T00:53:44.755Z,8.39
2019-03-15T00:56:13.290Z,8.23
2019-03-15T00:58:41.901Z,8.11
2019-03-15T01:01:10.600Z,8.10
2019-03-15T01:03:39.373Z,8.18
2019-03-15T01:06:08.775Z,8.15
2019-03-15T01:08:37.316Z,8.14
2019-03-15T01:11:05.926Z,8.14
2019-03-15T01:13:34.532Z,8.19
2019-03-15T01:16:03.110Z,8.18
2019-03-15T01:18:31.578Z,8.22
2019-03-15T01:21:00.199Z,8.21
2019-03-15T01:23:28.781Z,8.39
2019-03-15T01:25:57.355Z,8.60
2019-03-15T01:28:25.921Z,8.64
2019-03-15T01:30:55.676Z,8.45
2019-03-15T01:33:24.299Z,8.32
2019-03-15T01:35:52.889Z,8.14
2019-03-15T01:38:23.180Z,8.10
2019-03-15T01:40:51.608Z,8.16
2019-03-15T01:43:20.118Z,8.14
2019-03-15T01:45:49.550Z,8.15
2019-03-15T01:48:18.153Z,8.30
2019-03-15T01:50:46.732Z,8.40
2019-03-15T01:53:15.786Z,8.44
2019-03-15T01:55:44.311Z,8.48
2019-03-15T01:58:12.945Z,8.57
2019-03-15T02:00:41.516Z,8.72
2019-03-15T02:03:10.102Z,8.73
2019-03-15T02:05:38.672Z,8.46
2019-03-15T02:08:07.225Z,8.29
2019-03-15T02:10:35.955Z,8.16
2019-03-15T02:13:04.530Z,8.06
2019-03-15T02:15:33.186Z,7.93
2019-03-15T02:18:01.756Z,7.78
2019-03-15T02:20:30.344Z,7.73
2019-03-15T02:22:58.977Z,7.76
2019-03-15T02:25:27.734Z,7.94
2019-03-15T02:27:56.283Z,7.95
2019-03-15T02:30:24.823Z,7.91
2019-03-15T02:32:53.462Z,8.04
2019-03-15T02:35:21.893Z,8.24
2019-03-15T02:37:50.479Z,8.33
2019-03-15T02:40:19.005Z,8.15
2019-03-15T02:42:47.701Z,7.93
2019-03-15T02:45:16.781Z,7.81
2019-03-15T02:47:46.298Z,7.81
2019-03-15T02:50:15.503Z,7.80
2019-03-15T02:52:44.007Z,7.87
2019-03-15T02:55:12.591Z,7.88
2019-03-15T02:57:41.137Z,7.80
2019-03-15T03:02:32.346Z,8.15
2019-03-15T03:05:00.893Z,8.21
2019-03-15T03:07:29.482Z,8.25
2019-03-15T03:09:58.007Z,8.33
2019-03-15T03:12:26.626Z,8.51
2019-03-15T03:14:55.101Z,8.41
2019-03-15T03:17:23.686Z,8.26
2019-03-15T03:19:52.278Z,8.18
2019-03-15T03:22:21.001Z,8.06
2019-03-15T03:24:50.903Z,7.97
2019-03-15T03:27:19.708Z,7.88
2019-03-15T03:29:48.210Z,7.85
2019-03-15T03:32:17.508Z,7.87
2019-03-15T03:34:46.157Z,7.92
2019-03-15T03:37:14.737Z,7.95
2019-03-15T03:39:43.255Z,7.99
2019-03-15T03:42:11.967Z,8.00
2019-03-15T03:44:40.481Z,8.13
2019-03-15T03:47:09.046Z,8.42
2019-03-15T03:49:37.575Z,8.37
2019-03-15T03:52:06.197Z,8.21
2019-03-15T03:54:34.829Z,8.12
2019-03-15T03:57:03.837Z,7.99
2019-03-15T03:59:32.545Z,7.90
2019-03-15T04:02:01.936Z,7.83
2019-03-15T04:04:30.669Z,7.76
2019-03-15T04:06:59.245Z,7.73
2019-03-15T04:09:27.996Z,7.87
2019-03-15T04:11:56.556Z,7.99
2019-03-15T04:14:25.193Z,8.09
2019-03-15T04:16:53.640Z,8.02
2019-03-15T04:19:22.206Z,8.06
2019-03-15T04:21:50.644Z,8.15
2019-03-15T04:24:19.110Z,8.23
2019-03-15T04:26:48.652Z,8.15
2019-03-15T04:29:17.225Z,8.06
2019-03-15T04:31:45.923Z,7.99
2019-03-15T04:34:14.486Z,7.88
2019-03-15T04:36:43.031Z,7.81
2019-03-15T04:39:13.961Z,7.71
2019-03-15T04:41:41.951Z,7.83
2019-03-15T04:44:10.831Z,7.89
2019-03-15T04:46:39.615Z,7.95
2019-03-15T04:49:08.041Z,7.95
2019-03-15T04:51:36.704Z,7.99
2019-03-15T04:54:05.832Z,8.02
2019-03-15T04:56:34.564Z,8.16
2019-03-15T04:59:03.139Z,8.36
2019-03-15T05:01:31.768Z,8.23
2019-03-15T05:04:00.287Z,8.07
2019-03-15T05:06:28.881Z,7.98
2019-03-15T05:08:57.549Z,7.87
2019-03-15T05:11:26.068Z,7.86
2019-03-15T05:13:54.662Z,7.75
2019-03-15T05:16:23.302Z,7.86
2019-03-15T05:18:51.862Z,7.97
2019-03-15T05:21:20.448Z,8.04
2019-03-15T05:23:49.765Z,8.11
2019-03-15T05:26:18.348Z,8.16
2019-03-15T05:28:46.825Z,8.25
2019-03-15T05:31:15.421Z,8.36
2019-03-15T05:33:43.930Z,8.57
2019-03-15T05:36:12.543Z,8.55
2019-03-15T05:38:41.246Z,8.48
2019-03-15T05:41:09.856Z,8.38
2019-03-15T05:43:38.372Z,8.34
2019-03-15T05:46:06.985Z,8.39
2019-03-15T05:48:35.541Z,8.28
2019-03-15T05:51:04.174Z,8.29
2019-03-15T05:53:32.835Z,8.27
2019-03-15T05:56:01.385Z,8.25
2019-03-15T05:58:30.113Z,8.29
2019-03-15T06:00:58.760Z,8.32
2019-03-15T06:03:27.406Z,8.41
2019-03-15T06:05:56.074Z,8.56
2019-03-15T06:08:27.474Z,8.76
2019-03-15T06:10:55.362Z,8.81
2019-03-15T06:13:23.955Z,8.68
2019-03-15T06:15:52.516Z,8.39
2019-03-15T06:18:21.313Z,8.33
2019-03-15T06:20:49.831Z,8.26
2019-03-15T06:23:18.439Z,8.28
2019-03-15T06:25:46.896Z,8.37
2019-03-15T06:28:15.454Z,8.32
2019-03-15T06:30:44.060Z,8.31
2019-03-15T06:33:12.785Z,8.45
2019-03-15T06:35:41.462Z,8.42
2019-03-15T06:38:10.017Z,8.41
2019-03-15T06:40:38.552Z,8.54
2019-03-15T06:43:07.168Z,8.73
2019-03-15T06:45:35.754Z,8.92
2019-03-15T06:48:04.247Z,8.77
2019-03-15T06:50:32.839Z,8.73
2019-03-15T06:53:01.411Z,8.63
2019-03-15T06:55:29.997Z,8.41
2019-03-15T06:57:58.657Z,8.33
2019-03-15T07:00:27.232Z,8.17
2019-03-15T07:02:55.830Z,8.16
2019-03-15T07:05:24.515Z,8.18
2019-03-15T07:07:53.061Z,8.30
2019-03-15T07:10:22.084Z,8.37
2019-03-15T07:12:50.696Z,8.42
2019-03-15T07:15:19.276Z,8.47
2019-03-15T07:17:47.837Z,8.49
2019-03-15T07:20:17.128Z,8.73
2019-03-15T07:22:45.655Z,8.71
2019-03-15T07:25:14.378Z,8.58
2019-03-15T07:27:43.255Z,8.41
2019-03-15T07:30:15.722Z,8.39
2019-03-15T07:32:44.366Z,8.39
2019-03-15T07:35:12.957Z,8.45
2019-03-15T07:37:45.159Z,8.47
2019-03-15T07:40:13.386Z,8.43
2019-03-15T07:42:42.112Z,8.51
2019-03-15T07:45:14.510Z,8.58
2019-03-15T07:47:43.201Z,8.61
2019-03-15T07:50:15.633Z,8.51
2019-03-15T07:52:44.274Z,8.92
2019-03-15T07:55:13.063Z,8.92
2019-03-15T07:57:41.671Z,8.99
2019-03-15T08:00:14.895Z,8.83
2019-03-15T08:02:45.237Z,8.76
2019-03-15T08:05:13.806Z,8.59
2019-03-15T08:07:45.486Z,8.43
2019-03-15T08:10:13.413Z,8.38
2019-03-15T08:12:42.025Z,8.53
2019-03-15T08:15:14.171Z,8.56
2019-03-15T08:17:42.772Z,8.54
2019-03-15T08:20:12.675Z,8.63
2019-03-15T08:22:41.317Z,8.71
2019-03-15T08:25:11.281Z,8.84
2019-03-15T08:27:39.847Z,8.96
2019-03-15T08:30:14.086Z,9.13
2019-03-15T08:32:43.858Z,9.18
2019-03-15T08:35:13.318Z,8.94
2019-03-15T08:37:41.887Z,8.84
2019-03-15T08:40:12.054Z,8.69
2019-03-15T08:42:40.607Z,8.46
2019-03-15T08:45:22.329Z,8.53
2019-03-15T08:47:51.021Z,8.76
2019-03-15T08:50:20.646Z,8.88
2019-03-15T08:52:49.240Z,8.91
2019-03-15T08:55:17.849Z,9.07
2019-03-15T08:57:46.503Z,9.22
2019-03-15T09:00:17.151Z,9.30
2019-03-15T09:02:45.855Z,9.35
2019-03-15T09:05:18.172Z,9.47
2019-03-15T09:07:46.863Z,9.59
2019-03-15T09:10:23.329Z,9.47
2019-03-15T09:12:47.002Z,9.46
2019-03-15T09:15:15.920Z,9.38
2019-03-15T09:17:44.525Z,9.37
2019-03-15T09:20:16.610Z,9.49
2019-03-15T09:22:45.420Z,9.43
2019-03-15T09:25:19.958Z,9.55
2019-03-15T09:27:46.416Z,9.72
2019-03-15T09:30:23.778Z,9.92
2019-03-15T09:32:46.646Z,10.00
2019-03-15T09:35:15.231Z,10.04
2019-03-15T09:37:46.975Z,10.20
2019-03-15T09:40:17.386Z,10.43
2019-03-15T09:42:46.217Z,10.67
2019-03-15T09:45:16.966Z,10.65
2019-03-15T09:47:45.766Z,10.56
2019-03-15T09:50:33.873Z,10.57
2019-03-15T09:52:45.698Z,10.46
2019-03-15T09:55:14.711Z,10.45
2019-03-15T09:57:43.517Z,10.49
2019-03-15T10:00:16.025Z,10.57
2019-03-15T10:02:46.498Z,10.53
2019-03-15T10:05:15.362Z,10.67
2019-03-15T10:07:44.281Z,10.75
2019-03-15T10:10:20.435Z,10.79
2019-03-15T10:12:49.133Z,10.91
2019-03-15T10:15:18.222Z,11.10
2019-03-15T10:17:47.154Z,11.42
2019-03-15T10:20:16.663Z,11.52
2019-03-15T10:22:45.194Z,11.39
2019-03-15T10:25:15.909Z,11.28
2019-03-15T10:27:44.490Z,11.24
2019-03-15T10:30:15.563Z,11.25
2019-03-15T10:32:44.150Z,11.29
2019-03-15T10:35:12.858Z,11.33
2019-03-15T10:37:41.569Z,11.36
2019-03-15T10:40:23.797Z,11.29
2019-03-15T10:42:55.302Z,11.32
2019-03-15T10:45:22.928Z,11.50
2019-03-15T10:47:51.464Z,11.52
2019-03-15T10:50:20.361Z,11.72
2019-03-15T10:52:49.271Z,12.02
2019-03-15T10:55:20.619Z,12.37
2019-03-15T10:57:48.270Z,12.29
2019-03-15T11:00:20.437Z,12.29
2019-03-15T11:02:49.225Z,12.21
2019-03-15T11:05:17.853Z,12.15
2019-03-15T11:07:46.375Z,12.08
2019-03-15T11:10:14.900Z,12.16
2019-03-15T11:12:43.520Z,12.20
2019-03-15T11:15:13.511Z,12.25
2019-03-15T11:17:42.059Z,12.29
2019-03-15T11:20:11.603Z,12.34
2019-03-15T11:22:40.293Z,12.31
2019-03-15T11:25:10.256Z,12.47
2019-03-15T11:27:38.915Z,12.60
2019-03-15T11:30:13.564Z,12.66
2019-03-15T11:32:42.039Z,12.78
2019-03-15T11:35:11.348Z,12.98
2019-03-15T11:37:39.911Z,13.23
2019-03-15T11:40:18.930Z,13.62
2019-03-15T11:42:46.740Z,13.62
2019-03-15T11:45:15.345Z,13.41
2019-03-15T11:48:02.069Z,13.20
2019-03-15T11:50:16.168Z,13.09
2019-03-15T11:52:44.750Z,12.90
2019-03-15T11:55:13.373Z,12.84
2019-03-15T11:57:42.016Z,12.83
2019-03-15T12:00:16.491Z,12.78
2019-03-15T12:02:48.135Z,12.62
2019-03-15T12:05:16.773Z,12.62
2019-03-15T12:07:45.490Z,12.55
2019-03-15T12:10:18.060Z,12.64
2019-03-15T12:12:46.536Z,12.57
2019-03-15T12:15:17.088Z,12.48
2019-03-15T12:17:45.666Z,12.44
2019-03-15T12:20:14.490Z,12.47
2019-03-15T12:22:43.074Z,12.39
2019-03-15T12:25:12.562Z,12.32
2019-03-15T12:27:41.070Z,12.50
2019-03-15T12:30:18.959Z,12.56
2019-03-15T12:32:47.576Z,12.57
2019-03-15T12:35:16.562Z,12.64
2019-03-15T12:37:45.199Z,12.67
2019-03-15T12:40:15.126Z,12.72
2019-03-15T12:42:43.731Z,12.81
2019-03-15T12:45:13.524Z,12.97
2019-03-15T12:47:42.179Z,13.11
2019-03-15T12:50:12.814Z,13.09
2019-03-15T12:52:47.743Z,13.20
2019-03-15T12:55:12.874Z,13.45
2019-03-15T12:57:41.591Z,13.60
2019-03-15T13:00:17.980Z,13.69
2019-03-15T13:02:46.513Z,13.66
2019-03-15T13:05:15.247Z,13.83
2019-03-15T13:07:43.876Z,13.88
2019-03-15T13:10:17.835Z,13.88
2019-03-15T13:12:46.492Z,13.82
2019-03-15T13:15:16.209Z,13.73
2019-03-15T13:17:44.789Z,13.65
2019-03-15T13:20:14.664Z,13.59
2019-03-15T13:22:43.278Z,13.62
2019-03-15T13:25:12.640Z,13.55
2019-03-15T13:27:41.324Z,13.57
2019-03-15T13:30:14.423Z,13.55
2019-03-15T13:32:43.061Z,13.59
2019-03-15T13:35:11.912Z,13.57
2019-03-15T13:37:42.766Z,13.65
2019-03-15T13:40:18.563Z,13.61
2019-03-15T13:42:47.246Z,13.57
2019-03-15T13:45:16.543Z,13.45
2019-03-15T13:47:45.131Z,13.46
2019-03-15T13:50:21.316Z,13.47
2019-03-15T13:52:49.908Z,13.48
2019-03-15T13:55:18.524Z,13.59
2019-03-15T13:57:47.185Z,13.84
2019-03-15T14:00:17.382Z,14.05
2019-03-15T14:02:46.015Z,14.34
2019-03-15T14:05:14.818Z,14.30
2019-03-15T14:07:43.423Z,13.97
2019-03-15T14:10:13.892Z,13.78
2019-03-15T14:12:42.527Z,13.54
2019-03-15T14:15:18.560Z,13.42
2019-03-15T14:17:47.204Z,13.27
2019-03-15T14:20:15.784Z,13.27
2019-03-15T14:22:44.433Z,13.18
2019-03-15T14:25:18.543Z,13.11
2019-03-15T14:27:47.127Z,12.97
2019-03-15T14:30:15.837Z,12.97
2019-03-15T14:32:44.487Z,13.01
2019-03-15T14:35:13.135Z,12.91
2019-03-15T14:37:41.732Z,12.74
2019-03-15T14:40:11.755Z,12.81
2019-03-15T14:42:40.517Z,12.77
2019-03-15T14:45:11.509Z,12.61
2019-03-15T14:47:40.083Z,12.59
2019-03-15T14:50:10.211Z,12.69
2019-03-15T14:52:38.882Z,12.66
2019-03-15T14:55:09.826Z,12.67
2019-03-15T14:57:50.981Z,12.71
2019-03-15T15:00:16.879Z,12.74
2019-03-15T15:02:45.525Z,12.72
2019-03-15T15:05:14.184Z,12.71
2019-03-15T15:07:42.756Z,12.77
2019-03-15T15:10:16.267Z,12.80
2019-03-15T15:12:44.859Z,12.75
2019-03-15T15:15:14.689Z,12.76
2019-03-15T15:17:43.433Z,12.83
2019-03-15T15:20:12.678Z,12.87
2019-03-15T15:22:41.524Z,12.77
2019-03-15T15:25:12.785Z,12.78
2019-03-15T15:27:41.482Z,12.77
2019-03-15T15:30:12.553Z,12.74
2019-03-15T15:32:41.209Z,12.78
2019-03-15T15:35:11.597Z,12.91
2019-03-15T15:37:40.246Z,12.92
2019-03-15T15:40:13.227Z,12.95
2019-03-15T15:42:41.813Z,12.84
2019-03-15T15:45:11.739Z,12.81
2019-03-15T15:47:40.408Z,12.57
2019-03-15T15:50:10.609Z,12.52
2019-03-15T15:52:39.452Z,12.40
2019-03-15T15:55:10.236Z,12.27
2019-03-15T15:57:38.881Z,12.25
2019-03-15T16:00:16.738Z,12.13
2019-03-15T16:02:45.355Z,12.06
2019-03-15T16:05:14.139Z,11.96
2019-03-15T16:07:42.738Z,11.89
2019-03-15T16:10:17.712Z,11.79
2019-03-15T16:12:46.037Z,11.75
2019-03-15T16:15:16.033Z,11.78
2019-03-15T16:17:45.710Z,11.82
2019-03-15T16:20:14.753Z,11.52
2019-03-15T16:22:43.356Z,11.52
2019-03-15T16:25:12.517Z,11.56
2019-03-15T16:27:41.095Z,11.64
2019-03-15T16:30:17.657Z,11.79
2019-03-15T16:32:46.285Z,11.70
2019-03-15T16:35:15.305Z,11.62
2019-03-15T16:37:43.943Z,11.41
2019-03-15T16:40:13.990Z,11.20
2019-03-15T16:42:42.621Z,11.19
2019-03-15T16:45:22.661Z,11.19
2019-03-15T16:47:51.367Z,11.08
2019-03-15T16:50:19.878Z,11.13
2019-03-15T16:52:48.482Z,11.25
2019-03-15T16:55:17.325Z,11.34
2019-03-15T16:57:45.894Z,11.46
2019-03-15T17:00:16.256Z,11.48
2019-03-15T17:02:44.864Z,11.68
2019-03-15T17:05:14.220Z,12.17
2019-03-15T17:07:43.196Z,12.04
2019-03-15T17:10:14.752Z,11.90
2019-03-15T17:12:43.496Z,11.72
2019-03-15T17:15:20.418Z,11.49
2019-03-15T17:17:49.015Z,11.45
2019-03-15T17:20:17.819Z,11.47
2019-03-15T17:22:46.425Z,11.44
2019-03-15T17:25:15.029Z,11.38
2019-03-15T17:27:43.546Z,11.39
2019-03-15T17:30:15.769Z,11.49
2019-03-15T17:32:44.399Z,11.33
2019-03-15T17:35:14.581Z,11.42
2019-03-15T17:37:43.198Z,11.51
2019-03-15T17:40:17.429Z,11.50
2019-03-15T17:42:46.008Z,11.33
2019-03-15T17:45:14.651Z,10.89
2019-03-15T17:47:43.436Z,10.89
2019-03-15T17:50:19.481Z,10.57
2019-03-15T17:52:48.064Z,10.47
2019-03-15T17:55:17.743Z,10.29
2019-03-15T17:57:46.408Z,10.24
2019-03-15T18:00:25.290Z,10.13
2019-03-15T18:02:53.888Z,10.11
2019-03-15T18:05:22.542Z,10.15
2019-03-15T18:07:51.167Z,10.38
2019-03-15T18:10:19.842Z,10.58
2019-03-15T18:12:48.430Z,10.57
2019-03-15T18:15:17.094Z,10.34
2019-03-15T18:17:45.686Z,10.06
2019-03-15T18:20:14.402Z,9.89
2019-03-15T18:22:42.988Z,9.67
2019-03-15T18:25:11.883Z,9.71
2019-03-15T18:27:40.986Z,9.62
2019-03-15T18:30:14.990Z,9.65
2019-03-15T18:32:43.633Z,9.70
2019-03-15T18:35:12.529Z,9.81
2019-03-15T18:37:41.142Z,9.80
2019-03-15T18:40:20.488Z,9.75
2019-03-15T18:42:49.189Z,9.92
2019-03-15T18:45:18.375Z,10.27
2019-03-15T18:47:47.110Z,10.41
2019-03-15T18:50:28.405Z,10.22
2019-03-15T18:52:57.002Z,9.78
2019-03-15T18:55:25.613Z,9.60
2019-03-15T18:57:54.230Z,9.45
2019-03-15T19:00:24.136Z,9.40
2019-03-15T19:02:52.797Z,9.19
2019-03-15T19:05:21.420Z,9.08
2019-03-15T19:07:50.146Z,9.09
2019-03-15T19:10:18.753Z,9.18
2019-03-15T19:12:47.372Z,9.34
2019-03-15T19:15:18.989Z,9.44
2019-03-15T19:17:47.572Z,9.58
2019-03-15T19:20:16.904Z,9.88
2019-03-15T19:22:45.614Z,10.17
2019-03-15T19:25:15.433Z,10.01
2019-03-15T19:27:44.337Z,9.72
2019-03-15T19:30:15.028Z,9.43
2019-03-15T19:32:43.623Z,9.19
2019-03-15T19:35:12.418Z,9.09
2019-03-15T19:37:41.076Z,8.87
2019-03-15T19:40:12.193Z,8.87
2019-03-15T19:42:40.798Z,8.80
2019-03-15T19:45:11.825Z,8.93
2019-03-15T19:47:40.488Z,9.02
2019-03-15T19:50:20.201Z,9.03
2019-03-15T19:52:48.965Z,9.16
2019-03-15T19:55:17.778Z,9.40
2019-03-15T19:57:46.546Z,9.90
2019-03-15T20:00:21.242Z,9.64
2019-03-15T20:02:49.900Z,9.29
2019-03-15T20:05:18.513Z,8.92
2019-03-15T20:07:47.330Z,8.88
2019-03-15T20:10:17.314Z,8.77
2019-03-15T20:12:46.091Z,8.81
2019-03-15T20:15:16.817Z,8.79
2019-03-15T20:17:45.454Z,8.90
2019-03-15T20:20:15.381Z,9.05
2019-03-15T20:22:44.035Z,9.23
2019-03-15T20:25:16.003Z,9.35
2019-03-15T20:27:44.588Z,9.41
2019-03-15T20:30:21.526Z,9.59
2019-03-15T20:32:46.598Z,10.03
2019-03-15T20:35:15.272Z,9.93
2019-03-15T20:37:43.881Z,9.56
2019-03-15T20:40:14.434Z,9.34
2019-03-15T20:42:43.057Z,9.05
2019-03-15T20:45:20.261Z,9.01
2019-03-15T20:47:48.912Z,8.99
2019-03-15T20:50:17.537Z,9.08
2019-03-15T20:52:46.106Z,8.90
2019-03-15T20:55:14.705Z,8.95
2019-03-15T20:57:43.413Z,9.16
2019-03-15T21:00:16.585Z,9.38
2019-03-15T21:02:45.198Z,9.38
2019-03-15T21:05:14.185Z,9.39
2019-03-15T21:07:43.790Z,9.71
2019-03-15T21:10:14.627Z,9.88
2019-03-15T21:12:43.261Z,9.36
2019-03-15T21:15:13.292Z,9.05
2019-03-15T21:17:42.941Z,8.77
2019-03-15T21:20:14.407Z,8.51
2019-03-15T21:22:43.050Z,8.42
2019-03-15T21:25:11.766Z,8.47
2019-03-15T21:27:52.837Z,8.61
2019-03-15T21:30:22.092Z,8.61
2019-03-15T21:32:50.736Z,8.59
2019-03-15T21:35:19.326Z,8.73
2019-03-15T21:37:47.868Z,8.69
2019-03-15T21:40:20.726Z,8.93
2019-03-15T21:42:49.381Z,9.26
2019-03-15T21:45:18.012Z,9.52
2019-03-15T21:47:46.611Z,9.35
2019-03-15T21:50:22.170Z,9.12
2019-03-15T21:52:50.781Z,8.98
2019-03-15T21:55:19.410Z,8.93
2019-03-15T21:57:48.002Z,8.92
2019-03-15T22:00:20.113Z,8.97
2019-03-15T22:02:48.731Z,8.91
2019-03-15T22:05:17.304Z,8.92
2019-03-15T22:07:45.890Z,9.17
2019-03-15T22:10:15.067Z,9.39
2019-03-15T22:12:43.741Z,9.39
2019-03-15T22:15:13.329Z,9.48
2019-03-15T22:17:42.726Z,9.58
2019-03-15T22:20:16.213Z,9.90
2019-03-15T22:22:44.829Z,9.59
2019-03-15T22:25:13.434Z,9.25
2019-03-15T22:27:42.001Z,9.32
2019-03-15T22:30:16.247Z,9.18
2019-03-15T22:32:44.899Z,9.14
2019-03-15T22:35:13.475Z,9.07
2019-03-15T22:37:42.092Z,9.06
2019-03-15T22:40:12.660Z,9.17
2019-03-15T22:42:41.292Z,9.27
2019-03-15T22:45:11.295Z,9.41
2019-03-15T22:47:39.887Z,9.58
2019-03-15T22:50:10.912Z,9.64
2019-03-15T22:52:39.481Z,9.81
2019-03-15T22:55:10.024Z,10.07
2019-03-15T22:57:39.042Z,10.03
2019-03-15T23:00:18.349Z,9.89
2019-03-15T23:02:46.961Z,9.58
2019-03-15T23:05:15.507Z,9.26
2019-03-15T23:07:44.091Z,9.16
2019-03-15T23:10:12.674Z,9.14
2019-03-15T23:12:41.262Z,9.12
2019-03-15T23:15:11.090Z,9.33
2019-03-15T23:17:39.656Z,9.39
2019-03-15T23:20:13.728Z,9.53
2019-03-15T23:22:42.309Z,9.58
2019-03-15T23:25:11.414Z,9.69
2019-03-15T23:27:39.962Z,9.87
2019-03-15T23:30:13.383Z,10.16
2019-03-15T23:32:41.926Z,10.14
2019-03-15T23:35:11.527Z,9.75
2019-03-15T23:37:40.197Z,9.75
2019-03-15T23:40:16.341Z,9.54
2019-03-15T23:42:44.974Z,9.48
2019-03-15T23:45:13.577Z,9.36
2019-03-15T23:47:42.131Z,9.33
2019-03-15T23:50:13.741Z,9.20
2019-03-15T23:52:42.375Z,9.35
2019-03-15T23:55:12.052Z,9.46
2019-03-15T23:57:40.735Z,9.60
